Main page
METAR-TAF:

METAR-TAF

Airports :

Chehalis–Centralia Airport

Chehalis, Washington, United States

latitude: 46-40-37N, longitude: 122-58-58W, elevation: 177 ft

Current weather observation

The report was made 44 minutes ago, at 22:35 UTC
Wind 6 mph from variable directions
Temperature 68°F
Humidity 49%
Pressure 30.05 in. Hg
Visibility: 9 miles
Few clouds at a height of 4900 ft

METAR: KCLS 132235Z AUTO VRB05KT 9SM FEW049 20/09 A3005 RMK AO2

Time: 16:19 (23:19 UTC)


TAF: missing

Weather observations and forecasts of more than 4000 airports (METAR and TAF reports).

The available stations are represented by yellow and red dots on the map.

Hover mouse over dot to see the name of the station.

Then click to see weather observations and forecasts.

To change the map : click on the green buttons with a black cross to zoom in, on the green button with a dash to zoom out, or on the green arrows for adjacent maps.


METAR-TAF: